Olympic Champion — SYWD — position and weather

sailwx.info

Track history (hours):
 
Tides and Currents Weather Stations Pressure Air Temp Water Temp Dewpoint Dewpoint Depression Visibility Wind Speed Wind Dir Waves Ship Positions

Olympic Champion

Last reported at 2014-Sep-16 10:33 UTC. Time now 2014-Sep-16 11:26 UTC.
Position N 37°57' E 023°38'.

Length 204 m; draft 6.4 m.

Type: Passenger vessel. MMSI: 237280000.

Date/timePositionNaut miles runAvg speedWind from/ knotsBaromVisibWave heightAir tempDewpointWater temp
2014-Sep-16 10:33N 37°57' E 023°38'0 0.0
2014-Sep-16 09:33N 37°57' E 023°38'0 0.0
2014-Sep-16 08:33N 37°57' E 023°38'0 0.0
2014-Sep-16 07:33N 37°57' E 023°38'0 0.0
2014-Sep-16 06:33N 37°57' E 023°38'0 0.0
2014-Sep-16 05:33N 37°57' E 023°38'0 0.0
2014-Sep-16 04:33N 37°57' E 023°38'0 0.0
2014-Sep-16 03:33N 37°57' E 023°38'2 2.3
2014-Sep-16 02:33N 37°55' E 023°37'84 3.1
2014-Sep-14 23:30N 36°33' E 024°01'6820.0
2014-Sep-14 20:07N 37°39' E 023°43'1120.2
2014-Sep-14 19:33N 37°50' E 023°37'7 7.3
2014-Sep-14 18:33N 37°57' E 023°38'0 0.0
2014-Sep-14 17:34N 37°57' E 023°38'0 0.0
2014-Sep-14 16:33N 37°57' E 023°38'0 0.0
2014-Sep-14 15:33N 37°57' E 023°38'0 0.0
2014-Sep-14 14:33N 37°57' E 023°38'0 0.0
2014-Sep-14 13:33N 37°57' E 023°38'0 0.0
2014-Sep-14 12:33N 37°57' E 023°38'0 0.0
2014-Sep-14 11:34N 37°57' E 023°38'0 0.0
2014-Sep-14 10:33N 37°57' E 023°38'0 0.0
2014-Sep-14 09:33N 37°57' E 023°38'0 0.0
2014-Sep-14 08:33N 37°57' E 023°38'0 0.0
2014-Sep-14 07:33N 37°57' E 023°38'0 0.0
2014-Sep-14 06:33N 37°57' E 023°38'0 0.0
2014-Sep-14 03:19N 37°57' E 023°38'911.8
2014-Sep-14 02:33N 37°48' E 023°41'9919.5
2014-Sep-13 21:31N 36°11' E 024°05'2020.4
2014-Sep-13 20:32N 35°52' E 024°10'2020.2
2014-Sep-13 19:31N 35°32' E 024°13'41 2.2
2014-Sep-13 00:32N 36°12' E 024°05'2119.9
2014-Sep-12 23:28N 36°33' E 024°00'2020.1
2014-Sep-12 22:28N 36°53' E 023°56'4620.3
2014-Sep-12 20:11N 37°38' E 023°43'1220.1
2014-Sep-12 19:33N 37°50' E 023°36'7 7.3
2014-Sep-12 18:33N 37°57' E 023°38'0 0.0
2014-Sep-12 17:33N 37°57' E 023°38'0 0.0
2014-Sep-12 16:27N 37°57' E 023°38'0 0.0
2014-Sep-12 15:33N 37°57' E 023°38'0 0.0
2014-Sep-12 14:33N 37°57' E 023°38'0 0.0
2014-Sep-12 13:33N 37°57' E 023°38'0 0.0
2014-Sep-12 12:33N 37°57' E 023°38'0 0.0
2014-Sep-12 11:33N 37°57' E 023°38'0 0.0
2014-Sep-12 10:33N 37°57' E 023°38'0 0.0
2014-Sep-12 09:33N 37°57' E 023°38'0 0.0
2014-Sep-12 08:33N 37°57' E 023°38'0 0.0
2014-Sep-12 07:33N 37°57' E 023°38'0 0.0
2014-Sep-12 06:33N 37°57' E 023°38'0 0.0
2014-Sep-12 05:33N 37°57' E 023°38'0 0.0
2014-Sep-12 04:33N 37°57' E 023°38'0 0.0
2014-Sep-12 03:33N 37°57' E 023°38'9 9.4
2014-Sep-12 02:33N 37°48' E 023°42'6319.5
2014-Sep-11 23:18N 36°46' E 023°58'1519.7
2014-Sep-11 22:33N 36°31' E 024°01'6 0.2
2014-Sep-10 23:31N 36°37' E 024°00'6519.3
2014-Sep-10 20:07N 37°40' E 023°42'1119.0
2014-Sep-10 19:33N 37°50' E 023°37'6 6.5
2014-Sep-10 18:33N 37°57' E 023°38'0 0.0
2014-Sep-10 17:33N 37°57' E 023°38'0 0.0
2014-Sep-10 16:33N 37°57' E 023°38'0 0.0
2014-Sep-10 15:33N 37°57' E 023°38'0 0.0
2014-Sep-10 14:33N 37°57' E 023°38'0 0.0
2014-Sep-10 13:33N 37°57' E 023°38'0 0.0
2014-Sep-10 12:33N 37°57' E 023°38'0 0.0
2014-Sep-10 11:33N 37°57' E 023°38'0 0.0
2014-Sep-10 10:33N 37°57' E 023°38'0 0.0
2014-Sep-10 09:33N 37°57' E 023°38'0 0.0
2014-Sep-10 08:33N 37°57' E 023°38'0 0.0
2014-Sep-10 07:33N 37°57' E 023°38'0 0.0
2014-Sep-10 06:33N 37°57' E 023°38'0 0.0
2014-Sep-10 05:33N 37°57' E 023°38'0 0.0
2014-Sep-10 04:33N 37°57' E 023°38'0 0.0
2014-Sep-10 03:33N 37°57' E 023°38'9 9.2
2014-Sep-10 02:33N 37°48' E 023°41'76 2.8
2014-Sep-08 23:29N 36°34' E 024°00'6520.0
2014-Sep-08 20:13N 37°38' E 023°43'1320.1
2014-Sep-08 19:33N 37°50' E 023°37'7 7.0
2014-Sep-08 18:33N 37°57' E 023°38'0 0.0
2014-Sep-08 17:33N 37°57' E 023°38'0 0.0
2014-Sep-08 16:33N 37°57' E 023°38'0 0.0
2014-Sep-08 15:33N 37°57' E 023°38'0 0.0
2014-Sep-08 14:33N 37°57' E 023°38'0 0.0
2014-Sep-08 13:33N 37°57' E 023°38'0 0.0
2014-Sep-08 12:33N 37°57' E 023°38'0 0.0
2014-Sep-08 11:33N 37°57' E 023°38'0 0.0
2014-Sep-08 10:33N 37°57' E 023°38'0 0.0
2014-Sep-08 09:33N 37°57' E 023°38'0 0.0
2014-Sep-08 08:30N 37°57' E 023°38'0 0.0
2014-Sep-08 07:33N 37°57' E 023°38'0 0.0
2014-Sep-08 06:33N 37°57' E 023°38'0 0.0
2014-Sep-08 05:33N 37°57' E 023°38'0 0.0
2014-Sep-08 04:33N 37°57' E 023°38'0 0.3
2014-Sep-08 03:33N 37°57' E 023°38'1211.9
2014-Sep-08 02:33N 37°45' E 023°43'6719.4
2014-Sep-07 23:06N 36°39' E 023°58'58 4.5
2014-Sep-07 10:09N 37°36' E 023°43'1322.1
2014-Sep-07 09:33N 37°49' E 023°38'8 7.9
2014-Sep-07 08:33N 37°57' E 023°38'0 0.0
2014-Sep-07 07:33N 37°57' E 023°38'0 0.0
2014-Sep-07 06:33N 37°57' E 023°38'0 0.0
2014-Sep-07 05:33N 37°57' E 023°38'0 0.0
2014-Sep-07 04:33N 37°57' E 023°38'0 0.0
2014-Sep-07 03:33N 37°57' E 023°38'9 8.8
2014-Sep-07 02:33N 37°48' E 023°41'  
Track history (hours):
 
Tides and Currents Weather Stations Pressure Air Temp Water Temp Dewpoint Dewpoint Depression Visibility Wind Speed Wind Dir Waves Ship Positions

Olympic Champion

Last reported at 2014-Sep-16 10:33 UTC. Time now 2014-Sep-16 11:26 UTC.
Position N 37°57' E 023°38'.

Length 204 m; draft 6.4 m.

Type: Passenger vessel. MMSI: 237280000.

Date/timePositionNaut miles runAvg speedWind from/ knotsBaromVisibWave heightAir tempDewpointWater temp
2014-Sep-16 10:33N 37°57' E 023°38'0 0.0
2014-Sep-16 09:33N 37°57' E 023°38'0 0.0
2014-Sep-16 08:33N 37°57' E 023°38'0 0.0
2014-Sep-16 07:33N 37°57' E 023°38'0 0.0
2014-Sep-16 06:33N 37°57' E 023°38'0 0.0
2014-Sep-16 05:33N 37°57' E 023°38'0 0.0
2014-Sep-16 04:33N 37°57' E 023°38'0 0.0
2014-Sep-16 03:33N 37°57' E 023°38'2 2.3
2014-Sep-16 02:33N 37°55' E 023°37'84 3.1
2014-Sep-14 23:30N 36°33' E 024°01'6820.0
2014-Sep-14 20:07N 37°39' E 023°43'1120.2
2014-Sep-14 19:33N 37°50' E 023°37'7 7.3
2014-Sep-14 18:33N 37°57' E 023°38'0 0.0
2014-Sep-14 17:34N 37°57' E 023°38'0 0.0
2014-Sep-14 16:33N 37°57' E 023°38'0 0.0
2014-Sep-14 15:33N 37°57' E 023°38'0 0.0
2014-Sep-14 14:33N 37°57' E 023°38'0 0.0
2014-Sep-14 13:33N 37°57' E 023°38'0 0.0
2014-Sep-14 12:33N 37°57' E 023°38'0 0.0
2014-Sep-14 11:34N 37°57' E 023°38'0 0.0
2014-Sep-14 10:33N 37°57' E 023°38'0 0.0
2014-Sep-14 09:33N 37°57' E 023°38'0 0.0
2014-Sep-14 08:33N 37°57' E 023°38'0 0.0
2014-Sep-14 07:33N 37°57' E 023°38'0 0.0
2014-Sep-14 06:33N 37°57' E 023°38'0 0.0
2014-Sep-14 03:19N 37°57' E 023°38'911.8
2014-Sep-14 02:33N 37°48' E 023°41'9919.5
2014-Sep-13 21:31N 36°11' E 024°05'2020.4
2014-Sep-13 20:32N 35°52' E 024°10'2020.2
2014-Sep-13 19:31N 35°32' E 024°13'41 2.2
2014-Sep-13 00:32N 36°12' E 024°05'2119.9
2014-Sep-12 23:28N 36°33' E 024°00'2020.1
2014-Sep-12 22:28N 36°53' E 023°56'4620.3
2014-Sep-12 20:11N 37°38' E 023°43'1220.1
2014-Sep-12 19:33N 37°50' E 023°36'7 7.3
2014-Sep-12 18:33N 37°57' E 023°38'0 0.0
2014-Sep-12 17:33N 37°57' E 023°38'0 0.0
2014-Sep-12 16:27N 37°57' E 023°38'0 0.0
2014-Sep-12 15:33N 37°57' E 023°38'0 0.0
2014-Sep-12 14:33N 37°57' E 023°38'0 0.0
2014-Sep-12 13:33N 37°57' E 023°38'0 0.0
2014-Sep-12 12:33N 37°57' E 023°38'0 0.0
2014-Sep-12 11:33N 37°57' E 023°38'0 0.0
2014-Sep-12 10:33N 37°57' E 023°38'0 0.0
2014-Sep-12 09:33N 37°57' E 023°38'0 0.0
2014-Sep-12 08:33N 37°57' E 023°38'0 0.0
2014-Sep-12 07:33N 37°57' E 023°38'0 0.0
2014-Sep-12 06:33N 37°57' E 023°38'0 0.0
2014-Sep-12 05:33N 37°57' E 023°38'0 0.0
2014-Sep-12 04:33N 37°57' E 023°38'0 0.0
2014-Sep-12 03:33N 37°57' E 023°38'9 9.4
2014-Sep-12 02:33N 37°48' E 023°42'6319.5
2014-Sep-11 23:18N 36°46' E 023°58'1519.7
2014-Sep-11 22:33N 36°31' E 024°01'6 0.2
2014-Sep-10 23:31N 36°37' E 024°00'6519.3
2014-Sep-10 20:07N 37°40' E 023°42'1119.0
2014-Sep-10 19:33N 37°50' E 023°37'6 6.5
2014-Sep-10 18:33N 37°57' E 023°38'0 0.0
2014-Sep-10 17:33N 37°57' E 023°38'0 0.0
2014-Sep-10 16:33N 37°57' E 023°38'0 0.0
2014-Sep-10 15:33N 37°57' E 023°38'0 0.0
2014-Sep-10 14:33N 37°57' E 023°38'0 0.0
2014-Sep-10 13:33N 37°57' E 023°38'0 0.0
2014-Sep-10 12:33N 37°57' E 023°38'0 0.0
2014-Sep-10 11:33N 37°57' E 023°38'0 0.0
2014-Sep-10 10:33N 37°57' E 023°38'0 0.0
2014-Sep-10 09:33N 37°57' E 023°38'0 0.0
2014-Sep-10 08:33N 37°57' E 023°38'0 0.0
2014-Sep-10 07:33N 37°57' E 023°38'0 0.0
2014-Sep-10 06:33N 37°57' E 023°38'0 0.0
2014-Sep-10 05:33N 37°57' E 023°38'0 0.0
2014-Sep-10 04:33N 37°57' E 023°38'0 0.0
2014-Sep-10 03:33N 37°57' E 023°38'9 9.2
2014-Sep-10 02:33N 37°48' E 023°41'76 2.8
2014-Sep-08 23:29N 36°34' E 024°00'6520.0
2014-Sep-08 20:13N 37°38' E 023°43'1320.1
2014-Sep-08 19:33N 37°50' E 023°37'7 7.0
2014-Sep-08 18:33N 37°57' E 023°38'0 0.0
2014-Sep-08 17:33N 37°57' E 023°38'0 0.0
2014-Sep-08 16:33N 37°57' E 023°38'0 0.0
2014-Sep-08 15:33N 37°57' E 023°38'0 0.0
2014-Sep-08 14:33N 37°57' E 023°38'0 0.0
2014-Sep-08 13:33N 37°57' E 023°38'0 0.0
2014-Sep-08 12:33N 37°57' E 023°38'0 0.0
2014-Sep-08 11:33N 37°57' E 023°38'0 0.0
2014-Sep-08 10:33N 37°57' E 023°38'0 0.0
2014-Sep-08 09:33N 37°57' E 023°38'0 0.0
2014-Sep-08 08:30N 37°57' E 023°38'0 0.0
2014-Sep-08 07:33N 37°57' E 023°38'0 0.0
2014-Sep-08 06:33N 37°57' E 023°38'0 0.0
2014-Sep-08 05:33N 37°57' E 023°38'0 0.0
2014-Sep-08 04:33N 37°57' E 023°38'0 0.3
2014-Sep-08 03:33N 37°57' E 023°38'1211.9
2014-Sep-08 02:33N 37°45' E 023°43'6719.4
2014-Sep-07 23:06N 36°39' E 023°58'58 4.5
2014-Sep-07 10:09N 37°36' E 023°43'1322.1
2014-Sep-07 09:33N 37°49' E 023°38'8 7.9
2014-Sep-07 08:33N 37°57' E 023°38'0 0.0
2014-Sep-07 07:33N 37°57' E 023°38'0 0.0
2014-Sep-07 06:33N 37°57' E 023°38'0 0.0
2014-Sep-07 05:33N 37°57' E 023°38'0 0.0
2014-Sep-07 04:33N 37°57' E 023°38'0 0.0
2014-Sep-07 03:33N 37°57' E 023°38'9 8.8
2014-Sep-07 02:33N 37°48' E 023°41'  

Dump ship's entire track history